sensor_id;sensor_type;location;lat;lon;timestamp;temperature;humidity
22607;DHT22;11470;20.968;105.834;2023-05-19T00:02:44;30.00;99.90
22607;DHT22;11470;20.968;105.834;2023-05-19T00:07:51;30.00;99.90
22607;DHT22;11470;20.968;105.834;2023-05-19T00:12:58;30.30;99.90
22607;DHT22;11470;20.968;105.834;2023-05-19T00:18:05;30.20;99.90
22607;DHT22;11470;20.968;105.834;2023-05-19T00:23:12;30.40;99.90
22607;DHT22;11470;20.968;105.834;2023-05-19T00:28:18;30.70;99.90
22607;DHT22;11470;20.968;105.834;2023-05-19T00:33:23;30.80;99.90
22607;DHT22;11470;20.968;105.834;2023-05-19T00:38:30;31.00;99.90
22607;DHT22;11470;20.968;105.834;2023-05-19T00:43:36;31.10;99.90
22607;DHT22;11470;20.968;105.834;2023-05-19T00:48:42;31.00;99.90
22607;DHT22;11470;20.968;105.834;2023-05-19T00:53:49;30.90;99.90
22607;DHT22;11470;20.968;105.834;2023-05-19T00:58:57;31.00;99.90
22607;DHT22;11470;20.968;105.834;2023-05-19T01:04:03;31.10;99.90
22607;DHT22;11470;20.968;105.834;2023-05-19T01:09:09;31.20;99.90
22607;DHT22;11470;20.968;105.834;2023-05-19T01:14:16;31.40;99.90
22607;DHT22;11470;20.968;105.834;2023-05-19T01:25:07;31.90;99.90
22607;DHT22;11470;20.968;105.834;2023-05-19T01:35:30;32.10;99.90
22607;DHT22;11470;20.968;105.834;2023-05-19T01:40:38;32.70;99.90
22607;DHT22;11470;20.968;105.834;2023-05-19T01:45:45;33.40;99.90
22607;DHT22;11470;20.968;105.834;2023-05-19T01:50:52;33.80;99.90
22607;DHT22;11470;20.968;105.834;2023-05-19T01:55:58;33.80;99.90
22607;DHT22;11470;20.968;105.834;2023-05-19T02:01:15;33.80;99.90
22607;DHT22;11470;20.968;105.834;2023-05-19T02:06:51;34.40;99.90
22607;DHT22;11470;20.968;105.834;2023-05-19T02:17:17;34.70;99.90
22607;DHT22;11470;20.968;105.834;2023-05-19T02:22:24;34.60;99.90
22607;DHT22;11470;20.968;105.834;2023-05-19T02:27:30;34.60;99.90
22607;DHT22;11470;20.968;105.834;2023-05-19T02:32:37;34.70;99.90
22607;DHT22;11470;20.968;105.834;2023-05-19T02:37:44;34.30;99.90
22607;DHT22;11470;20.968;105.834;2023-05-19T02:42:49;34.20;99.90
22607;DHT22;11470;20.968;105.834;2023-05-19T02:47:55;34.50;99.90
22607;DHT22;11470;20.968;105.834;2023-05-19T02:53:01;34.90;99.90
22607;DHT22;11470;20.968;105.834;2023-05-19T02:58:06;35.90;99.90
22607;DHT22;11470;20.968;105.834;2023-05-19T03:03:12;36.50;99.90
22607;DHT22;11470;20.968;105.834;2023-05-19T03:08:19;36.60;99.80
22607;DHT22;11470;20.968;105.834;2023-05-19T03:13:25;36.90;98.90
22607;DHT22;11470;20.968;105.834;2023-05-19T03:18:42;36.90;98.10
22607;DHT22;11470;20.968;105.834;2023-05-19T03:23:47;36.90;97.50
22607;DHT22;11470;20.968;105.834;2023-05-19T03:28:53;36.90;97.50
22607;DHT22;11470;20.968;105.834;2023-05-19T03:33:59;36.80;97.70
22607;DHT22;11470;20.968;105.834;2023-05-19T03:39:07;36.90;97.40
22607;DHT22;11470;20.968;105.834;2023-05-19T03:44:13;37.30;96.40
22607;DHT22;11470;20.968;105.834;2023-05-19T03:49:19;37.60;95.50
22607;DHT22;11470;20.968;105.834;2023-05-19T03:54:48;37.70;94.90
22607;DHT22;11470;20.968;105.834;2023-05-19T03:59:54;37.80;94.10
22607;DHT22;11470;20.968;105.834;2023-05-19T04:05:01;37.60;94.20
22607;DHT22;11470;20.968;105.834;2023-05-19T04:10:09;37.80;93.50
22607;DHT22;11470;20.968;105.834;2023-05-19T04:15:15;37.60;93.80
22607;DHT22;11470;20.968;105.834;2023-05-19T04:20:20;37.40;94.10
22607;DHT22;11470;20.968;105.834;2023-05-19T04:25:26;37.60;93.70
22607;DHT22;11470;20.968;105.834;2023-05-19T04:30:31;37.60;93.40
22607;DHT22;11470;20.968;105.834;2023-05-19T04:35:38;37.80;93.30
22607;DHT22;11470;20.968;105.834;2023-05-19T04:40:45;38.30;92.20
22607;DHT22;11470;20.968;105.834;2023-05-19T04:45:54;38.50;91.70
22607;DHT22;11470;20.968;105.834;2023-05-19T04:51:01;40.10;86.70
22607;DHT22;11470;20.968;105.834;2023-05-19T04:56:08;40.70;84.00
22607;DHT22;11470;20.968;105.834;2023-05-19T05:01:15;41.40;80.00
22607;DHT22;11470;20.968;105.834;2023-05-19T05:06:25;42.60;75.00
22607;DHT22;11470;20.968;105.834;2023-05-19T05:12:35;42.70;70.00
22607;DHT22;11470;20.968;105.834;2023-05-19T05:18:01;42.10;72.90
22607;DHT22;11470;20.968;105.834;2023-05-19T05:23:08;42.40;69.00
22607;DHT22;11470;20.968;105.834;2023-05-19T05:28:15;42.10;71.80
22607;DHT22;11470;20.968;105.834;2023-05-19T05:33:43;42.60;68.10
22607;DHT22;11470;20.968;105.834;2023-05-19T05:39:32;42.20;69.90
22607;DHT22;11470;20.968;105.834;2023-05-19T05:44:41;39.80;76.30
22607;DHT22;11470;20.968;105.834;2023-05-19T05:49:49;39.50;80.20
22607;DHT22;11470;20.968;105.834;2023-05-19T05:55:15;40.10;77.90
22607;DHT22;11470;20.968;105.834;2023-05-19T06:00:40;39.60;79.40
22607;DHT22;11470;20.968;105.834;2023-05-19T06:06:01;41.90;75.00
22607;DHT22;11470;20.968;105.834;2023-05-19T06:11:13;42.30;71.80
22607;DHT22;11470;20.968;105.834;2023-05-19T06:16:20;42.80;68.10
22607;DHT22;11470;20.968;105.834;2023-05-19T06:21:28;42.80;68.50
22607;DHT22;11470;20.968;105.834;2023-05-19T06:26:38;43.30;68.90
22607;DHT22;11470;20.968;105.834;2023-05-19T06:31:43;42.80;66.60
22607;DHT22;11470;20.968;105.834;2023-05-19T06:36:51;43.80;67.00
22607;DHT22;11470;20.968;105.834;2023-05-19T06:41:57;43.20;64.60
22607;DHT22;11470;20.968;105.834;2023-05-19T06:47:25;43.30;68.60
22607;DHT22;11470;20.968;105.834;2023-05-19T06:52:31;44.80;63.70
22607;DHT22;11470;20.968;105.834;2023-05-19T06:57:37;43.90;65.00
22607;DHT22;11470;20.968;105.834;2023-05-19T07:02:43;42.80;68.80
22607;DHT22;11470;20.968;105.834;2023-05-19T07:07:53;44.00;64.30
22607;DHT22;11470;20.968;105.834;2023-05-19T07:13:02;43.80;62.60
22607;DHT22;11470;20.968;105.834;2023-05-19T07:18:10;42.90;66.60
22607;DHT22;11470;20.968;105.834;2023-05-19T07:23:16;43.80;64.20
22607;DHT22;11470;20.968;105.834;2023-05-19T07:28:22;44.40;63.40
22607;DHT22;11470;20.968;105.834;2023-05-19T07:33:28;44.70;63.10
22607;DHT22;11470;20.968;105.834;2023-05-19T07:45:04;44.90;62.20
22607;DHT22;11470;20.968;105.834;2023-05-19T07:50:11;43.00;67.40
22607;DHT22;11470;20.968;105.834;2023-05-19T07:55:17;43.70;65.70
22607;DHT22;11470;20.968;105.834;2023-05-19T08:00:23;43.90;65.50
22607;DHT22;11470;20.968;105.834;2023-05-19T08:05:29;43.80;64.60
22607;DHT22;11470;20.968;105.834;2023-05-19T08:10:40;43.90;65.00
22607;DHT22;11470;20.968;105.834;2023-05-19T08:15:46;43.90;64.10
22607;DHT22;11470;20.968;105.834;2023-05-19T08:21:00;44.00;63.10
22607;DHT22;11470;20.968;105.834;2023-05-19T08:26:08;43.40;65.00
22607;DHT22;11470;20.968;105.834;2023-05-19T08:31:14;42.20;68.20
22607;DHT22;11470;20.968;105.834;2023-05-19T08:36:22;40.90;72.00
22607;DHT22;11470;20.968;105.834;2023-05-19T08:41:28;39.90;74.40
22607;DHT22;11470;20.968;105.834;2023-05-19T08:46:37;39.20;77.80
22607;DHT22;11470;20.968;105.834;2023-05-19T08:51:59;38.60;80.50
22607;DHT22;11470;20.968;105.834;2023-05-19T08:57:07;38.10;83.10
22607;DHT22;11470;20.968;105.834;2023-05-19T09:02:16;37.60;84.20
22607;DHT22;11470;20.968;105.834;2023-05-19T09:07:26;37.40;87.00
22607;DHT22;11470;20.968;105.834;2023-05-19T09:12:37;37.20;88.40
22607;DHT22;11470;20.968;105.834;2023-05-19T09:17:46;36.90;90.00
22607;DHT22;11470;20.968;105.834;2023-05-19T09:22:54;36.60;90.70
22607;DHT22;11470;20.968;105.834;2023-05-19T09:28:01;36.40;91.40
22607;DHT22;11470;20.968;105.834;2023-05-19T09:33:23;36.00;92.10
22607;DHT22;11470;20.968;105.834;2023-05-19T09:38:31;35.80;92.90
22607;DHT22;11470;20.968;105.834;2023-05-19T09:44:02;35.60;93.70
22607;DHT22;11470;20.968;105.834;2023-05-19T09:50:21;35.40;94.70
22607;DHT22;11470;20.968;105.834;2023-05-19T09:55:43;35.10;95.70
22607;DHT22;11470;20.968;105.834;2023-05-19T10:00:50;35.00;96.20
22607;DHT22;11470;20.968;105.834;2023-05-19T10:06:05;34.80;96.80
22607;DHT22;11470;20.968;105.834;2023-05-19T10:11:13;34.60;97.80
22607;DHT22;11470;20.968;105.834;2023-05-19T10:16:24;34.40;98.60
22607;DHT22;11470;20.968;105.834;2023-05-19T10:21:31;34.20;99.70
22607;DHT22;11470;20.968;105.834;2023-05-19T10:26:37;34.10;99.90
22607;DHT22;11470;20.968;105.834;2023-05-19T10:31:45;33.90;99.90
22607;DHT22;11470;20.968;105.834;2023-05-19T10:43:24;33.60;99.90
22607;DHT22;11470;20.968;105.834;2023-05-19T10:47:57;33.30;99.90
22607;DHT22;11470;20.968;105.834;2023-05-19T10:53:03;33.20;99.90
22607;DHT22;11470;20.968;105.834;2023-05-19T11:03:54;32.80;99.90
22607;DHT22;11470;20.968;105.834;2023-05-19T11:09:16;32.70;99.90
22607;DHT22;11470;20.968;105.834;2023-05-19T11:14:36;32.60;99.90
22607;DHT22;11470;20.968;105.834;2023-05-19T11:19:56;32.40;99.90
22607;DHT22;11470;20.968;105.834;2023-05-19T11:25:04;32.20;99.90
22607;DHT22;11470;20.968;105.834;2023-05-19T11:30:11;32.00;99.90
22607;DHT22;11470;20.968;105.834;2023-05-19T11:35:22;31.90;99.90
22607;DHT22;11470;20.968;105.834;2023-05-19T11:40:29;31.70;99.90
22607;DHT22;11470;20.968;105.834;2023-05-19T11:45:35;31.60;99.90
22607;DHT22;11470;20.968;105.834;2023-05-19T11:50:41;31.50;99.90
22607;DHT22;11470;20.968;105.834;2023-05-19T11:55:48;31.30;99.90
22607;DHT22;11470;20.968;105.834;2023-05-19T12:01:01;31.30;99.90
22607;DHT22;11470;20.968;105.834;2023-05-19T12:06:07;31.20;99.90
22607;DHT22;11470;20.968;105.834;2023-05-19T12:11:13;31.10;99.90
22607;DHT22;11470;20.968;105.834;2023-05-19T12:16:21;31.00;99.90
22607;DHT22;11470;20.968;105.834;2023-05-19T12:21:27;31.00;99.90
22607;DHT22;11470;20.968;105.834;2023-05-19T12:26:37;31.00;99.90
22607;DHT22;11470;20.968;105.834;2023-05-19T12:31:45;30.90;99.90
22607;DHT22;11470;20.968;105.834;2023-05-19T12:36:52;30.90;99.90
22607;DHT22;11470;20.968;105.834;2023-05-19T12:42:07;30.80;99.90
22607;DHT22;11470;20.968;105.834;2023-05-19T12:47:15;30.80;99.90
22607;DHT22;11470;20.968;105.834;2023-05-19T12:52:21;30.70;99.90
22607;DHT22;11470;20.968;105.834;2023-05-19T12:57:28;30.70;99.90
22607;DHT22;11470;20.968;105.834;2023-05-19T13:02:59;30.70;99.90
22607;DHT22;11470;20.968;105.834;2023-05-19T13:08:09;30.50;99.90
22607;DHT22;11470;20.968;105.834;2023-05-19T13:13:16;30.50;99.90
22607;DHT22;11470;20.968;105.834;2023-05-19T13:18:22;30.40;99.90
22607;DHT22;11470;20.968;105.834;2023-05-19T13:23:28;30.40;99.90
22607;DHT22;11470;20.968;105.834;2023-05-19T13:28:34;30.30;99.90
22607;DHT22;11470;20.968;105.834;2023-05-19T13:33:55;30.30;99.90
22607;DHT22;11470;20.968;105.834;2023-05-19T13:39:01;30.20;99.90
22607;DHT22;11470;20.968;105.834;2023-05-19T13:44:06;30.20;99.90
22607;DHT22;11470;20.968;105.834;2023-05-19T13:49:12;30.10;99.90
22607;DHT22;11470;20.968;105.834;2023-05-19T13:54:20;30.00;99.90
22607;DHT22;11470;20.968;105.834;2023-05-19T13:59:29;29.90;99.90
22607;DHT22;11470;20.968;105.834;2023-05-19T14:04:38;29.90;99.90
22607;DHT22;11470;20.968;105.834;2023-05-19T14:09:44;29.90;99.90
22607;DHT22;11470;20.968;105.834;2023-05-19T14:20:19;29.80;99.90
22607;DHT22;11470;20.968;105.834;2023-05-19T14:25:25;29.80;99.90
22607;DHT22;11470;20.968;105.834;2023-05-19T14:30:31;29.70;99.90
22607;DHT22;11470;20.968;105.834;2023-05-19T14:35:37;29.60;99.90
22607;DHT22;11470;20.968;105.834;2023-05-19T14:40:44;29.60;99.90
22607;DHT22;11470;20.968;105.834;2023-05-19T14:45:53;29.60;99.90
22607;DHT22;11470;20.968;105.834;2023-05-19T14:50:58;29.70;99.90
22607;DHT22;11470;20.968;105.834;2023-05-19T14:56:05;29.70;99.90
22607;DHT22;11470;20.968;105.834;2023-05-19T15:01:11;29.60;99.90
22607;DHT22;11470;20.968;105.834;2023-05-19T15:06:20;29.60;99.90
22607;DHT22;11470;20.968;105.834;2023-05-19T15:11:26;29.50;99.90
22607;DHT22;11470;20.968;105.834;2023-05-19T15:16:33;29.40;99.90
22607;DHT22;11470;20.968;105.834;2023-05-19T15:21:41;29.40;99.90
22607;DHT22;11470;20.968;105.834;2023-05-19T15:26:50;29.30;99.90
22607;DHT22;11470;20.968;105.834;2023-05-19T15:31:56;29.30;99.90
22607;DHT22;11470;20.968;105.834;2023-05-19T15:37:02;29.30;99.90
22607;DHT22;11470;20.968;105.834;2023-05-19T15:42:10;29.30;99.90
22607;DHT22;11470;20.968;105.834;2023-05-19T15:47:16;29.30;99.90
22607;DHT22;11470;20.968;105.834;2023-05-19T15:52:21;29.30;99.90
22607;DHT22;11470;20.968;105.834;2023-05-19T15:57:27;29.40;99.90
22607;DHT22;11470;20.968;105.834;2023-05-19T16:02:33;29.40;99.90
22607;DHT22;11470;20.968;105.834;2023-05-19T16:07:39;29.40;99.90
22607;DHT22;11470;20.968;105.834;2023-05-19T16:12:45;29.40;99.90
22607;DHT22;11470;20.968;105.834;2023-05-19T16:17:51;29.20;99.90
22607;DHT22;11470;20.968;105.834;2023-05-19T16:22:58;29.10;99.90
22607;DHT22;11470;20.968;105.834;2023-05-19T16:28:04;29.10;99.90
22607;DHT22;11470;20.968;105.834;2023-05-19T16:33:10;29.10;99.90
22607;DHT22;11470;20.968;105.834;2023-05-19T16:38:15;29.10;99.90
22607;DHT22;11470;20.968;105.834;2023-05-19T16:43:21;29.10;99.90
22607;DHT22;11470;20.968;105.834;2023-05-19T16:48:28;29.10;99.90
22607;DHT22;11470;20.968;105.834;2023-05-19T16:53:34;29.10;99.90
22607;DHT22;11470;20.968;105.834;2023-05-19T16:58:39;29.10;99.90
22607;DHT22;11470;20.968;105.834;2023-05-19T17:03:45;29.10;99.90
22607;DHT22;11470;20.968;105.834;2023-05-19T17:08:51;29.00;99.90
22607;DHT22;11470;20.968;105.834;2023-05-19T17:13:56;29.00;99.90
22607;DHT22;11470;20.968;105.834;2023-05-19T17:19:02;28.90;99.90
22607;DHT22;11470;20.968;105.834;2023-05-19T17:24:08;28.90;99.90
22607;DHT22;11470;20.968;105.834;2023-05-19T17:29:14;28.90;99.90
22607;DHT22;11470;20.968;105.834;2023-05-19T17:34:22;28.90;99.90
22607;DHT22;11470;20.968;105.834;2023-05-19T17:39:27;28.90;99.90
22607;DHT22;11470;20.968;105.834;2023-05-19T17:44:33;28.80;99.90
22607;DHT22;11470;20.968;105.834;2023-05-19T17:49:38;28.80;99.90
22607;DHT22;11470;20.968;105.834;2023-05-19T17:54:46;28.70;99.90
22607;DHT22;11470;20.968;105.834;2023-05-19T17:59:51;28.70;99.90
22607;DHT22;11470;20.968;105.834;2023-05-19T18:04:57;28.70;99.90
22607;DHT22;11470;20.968;105.834;2023-05-19T18:10:04;28.70;99.90
22607;DHT22;11470;20.968;105.834;2023-05-19T18:15:11;28.70;99.90
22607;DHT22;11470;20.968;105.834;2023-05-19T18:20:16;28.60;99.90
22607;DHT22;11470;20.968;105.834;2023-05-19T18:25:23;28.50;99.90
22607;DHT22;11470;20.968;105.834;2023-05-19T18:30:28;28.50;99.90
22607;DHT22;11470;20.968;105.834;2023-05-19T18:35:35;28.50;99.90
22607;DHT22;11470;20.968;105.834;2023-05-19T18:40:44;28.50;99.90
22607;DHT22;11470;20.968;105.834;2023-05-19T18:45:49;28.50;99.90
22607;DHT22;11470;20.968;105.834;2023-05-19T18:50:55;28.40;99.90
22607;DHT22;11470;20.968;105.834;2023-05-19T18:56:04;28.30;99.90
22607;DHT22;11470;20.968;105.834;2023-05-19T19:01:09;28.30;99.90
22607;DHT22;11470;20.968;105.834;2023-05-19T19:06:15;28.40;99.90
22607;DHT22;11470;20.968;105.834;2023-05-19T19:11:21;28.40;99.90
22607;DHT22;11470;20.968;105.834;2023-05-19T19:16:26;28.40;99.90
22607;DHT22;11470;20.968;105.834;2023-05-19T19:21:31;28.40;99.90
22607;DHT22;11470;20.968;105.834;2023-05-19T19:26:46;28.40;99.90
22607;DHT22;11470;20.968;105.834;2023-05-19T19:31:51;28.30;99.90
22607;DHT22;11470;20.968;105.834;2023-05-19T19:36:57;28.20;99.90
22607;DHT22;11470;20.968;105.834;2023-05-19T19:42:02;28.20;99.90
22607;DHT22;11470;20.968;105.834;2023-05-19T19:47:08;28.20;99.90
22607;DHT22;11470;20.968;105.834;2023-05-19T19:52:13;28.20;99.90
22607;DHT22;11470;20.968;105.834;2023-05-19T19:57:19;28.10;99.90
22607;DHT22;11470;20.968;105.834;2023-05-19T20:02:24;28.00;99.90
22607;DHT22;11470;20.968;105.834;2023-05-19T20:07:30;28.10;99.90
22607;DHT22;11470;20.968;105.834;2023-05-19T20:12:35;28.10;99.90
22607;DHT22;11470;20.968;105.834;2023-05-19T20:17:41;28.10;99.90
22607;DHT22;11470;20.968;105.834;2023-05-19T20:22:46;28.10;99.90
22607;DHT22;11470;20.968;105.834;2023-05-19T20:27:52;28.10;99.90
22607;DHT22;11470;20.968;105.834;2023-05-19T20:32:57;28.20;99.90
22607;DHT22;11470;20.968;105.834;2023-05-19T20:38:03;28.20;99.90
22607;DHT22;11470;20.968;105.834;2023-05-19T20:43:08;28.20;99.90
22607;DHT22;11470;20.968;105.834;2023-05-19T20:48:14;28.20;99.90
22607;DHT22;11470;20.968;105.834;2023-05-19T20:53:19;28.30;99.90
22607;DHT22;11470;20.968;105.834;2023-05-19T20:58:25;28.30;99.90
22607;DHT22;11470;20.968;105.834;2023-05-19T21:03:33;28.30;99.90
22607;DHT22;11470;20.968;105.834;2023-05-19T21:08:38;28.30;99.90
22607;DHT22;11470;20.968;105.834;2023-05-19T21:13:43;28.30;99.90
22607;DHT22;11470;20.968;105.834;2023-05-19T21:18:49;28.20;99.90
22607;DHT22;11470;20.968;105.834;2023-05-19T21:23:54;28.20;99.90
22607;DHT22;11470;20.968;105.834;2023-05-19T21:29:00;28.20;99.90
22607;DHT22;11470;20.968;105.834;2023-05-19T21:34:05;28.20;99.90
22607;DHT22;11470;20.968;105.834;2023-05-19T21:39:13;28.20;99.90
22607;DHT22;11470;20.968;105.834;2023-05-19T21:44:19;28.20;99.90
22607;DHT22;11470;20.968;105.834;2023-05-19T21:49:25;28.20;99.90
22607;DHT22;11470;20.968;105.834;2023-05-19T21:54:30;28.20;99.90
22607;DHT22;11470;20.968;105.834;2023-05-19T21:59:35;28.30;99.90
22607;DHT22;11470;20.968;105.834;2023-05-19T22:04:40;28.30;99.90
22607;DHT22;11470;20.968;105.834;2023-05-19T22:09:46;28.50;99.90
22607;DHT22;11470;20.968;105.834;2023-05-19T22:14:51;28.40;99.90
22607;DHT22;11470;20.968;105.834;2023-05-19T22:19:56;28.50;99.90
22607;DHT22;11470;20.968;105.834;2023-05-19T22:25:02;28.50;99.90
22607;DHT22;11470;20.968;105.834;2023-05-19T22:30:08;28.50;99.90
22607;DHT22;11470;20.968;105.834;2023-05-19T22:35:14;28.50;99.90
22607;DHT22;11470;20.968;105.834;2023-05-19T22:40:19;28.50;99.90
22607;DHT22;11470;20.968;105.834;2023-05-19T22:45:24;28.60;99.90
22607;DHT22;11470;20.968;105.834;2023-05-19T22:50:29;28.60;99.90
22607;DHT22;11470;20.968;105.834;2023-05-19T22:55:35;28.70;99.90
22607;DHT22;11470;20.968;105.834;2023-05-19T23:00:40;28.70;99.90
22607;DHT22;11470;20.968;105.834;2023-05-19T23:05:45;28.80;99.90
22607;DHT22;11470;20.968;105.834;2023-05-19T23:10:50;28.80;99.90
22607;DHT22;11470;20.968;105.834;2023-05-19T23:15:55;28.90;99.90
22607;DHT22;11470;20.968;105.834;2023-05-19T23:21:00;29.00;99.90
22607;DHT22;11470;20.968;105.834;2023-05-19T23:26:06;29.00;99.90
22607;DHT22;11470;20.968;105.834;2023-05-19T23:31:10;29.10;99.90
22607;DHT22;11470;20.968;105.834;2023-05-19T23:36:16;29.10;99.90
22607;DHT22;11470;20.968;105.834;2023-05-19T23:41:22;29.20;99.90
22607;DHT22;11470;20.968;105.834;2023-05-19T23:46:28;29.30;99.90
22607;DHT22;11470;20.968;105.834;2023-05-19T23:57:11;29.40;99.90
